SKRGSKCL

Guest
Details From SKRG - Jose Maria Cordova
To SKCL - Alfonso Bonilla Aragon Intl
Flight Number -
Tags Generated
Created
Modified
Stats Distance 169 nm / 313 km
Max Altitude 0 ft / 0 m
Waypoints 2
Social Downloads 9
Likes 0
Share VATSIM

Download

Looking for another format? Having issues loading an existing format? Contact us
Advertisement - Login to hide

Notes

Generated

Route

SKRG SKCL

ID Type Via Altitude Latitude Longitude Leg Dist Tot Dist Heading (true) Name
O SKRG APT - 0 ft / 0 m 6.18036˚ -75.42323˚ - 0 nm - -
O SKCL APT - 0 ft / 0 m 3.52990˚ -76.38392˚ 169 nm 169 nm 200° / 200° -

Altitude Profile

Advertisement - Login to hide

Weather


0- 5 10 15 20 25 30 35+ Temperature / ° C

Clouds and Precipitation
Forecast for 2017-12-17 12:00 UTC. Updated an hour ago

Ground ~20,000 ft ~40,000 ft Winds

SKRG

Details ICAO SKRG (MDE)
Name JOSE MARIA CORDOVA
Region Colombia
Timezone America/Bogota (UTC-5.0)
Stats Elevation 6,955 ft / 2,120 m (AMSL)
Location 6.164532° -75.423119°
Runways 1
Magnetic Variation 6.632° W

METAR

SKRG 171200Z 17004KT 4000 0900S R01/P2000 PRFG BKN005 13/13 A3027

Decode

TAF

TAF SKRG 170500Z 1706/1806 VRB02KT 9999 SCT020 TEMPO 1708/1713 8000 VCFG SCT010 PROB40 TEMPO 1710/1712 0700 FG VV/// BECMG 1714/1716 12012KT TEMPO 1719/1723 8000 SCT018TCU TEMPO 1802/1805 00000KT 8000 VCFG SACT010 TX23/1719Z TN11/1711Z

Decode

Departure Runways

ID Width Length Bearing (true) Bearing (mag) Surface Threshold Offset Overrun Length
18 148 ft / 45 m 11,547 ft / 3,520 m 179.62° 186.25° Asphalt 0 ft / 0 m 98 ft / 30 m
36 148 ft / 45 m 11,547 ft / 3,520 m 359.62° 6.25° Asphalt 0 ft / 0 m 98 ft / 30 m

SKCL

Details ICAO SKCL (CLO)
Name ALFONSO BONILLA ARAGON INTL
Region Colombia
Timezone America/Bogota (UTC-5.0)
Stats Elevation 3,162 ft / 964 m (AMSL)
Location 3.543221° -76.381587°
Runways 1
Magnetic Variation 5.584° W

METAR

SKCL 171200Z 18003KT 8000 SCT040 SCT120 19/19 A2996

Decode

TAF

Not found

Destination Runways

ID Width Length Bearing (true) Bearing (mag) Surface Threshold Offset Overrun Length
01 148 ft / 45 m 9,869 ft / 3,008 m 9.91° 15.49° Asphalt 0 ft / 0 m 50 ft / 15 m
19 148 ft / 45 m 9,869 ft / 3,008 m 189.91° 195.49° Asphalt 0 ft / 0 m 65 ft / 20 m

Approach Navaids

Runway Type Ident Frequency Range Bearing (true) Bearing (mag) Slope Elevation
01 Localiser IPAS 109.90 MHz 18 nm / 33 km 9.69° 15.27° - 3,162 ft / 964 m (AMSL)
01 Glidescope IPAS 109.90 MHz 10 nm / 19 km 9.91° 15.49° 2.50° 3,162 ft / 964 m (AMSL)

Popular Alternatives